Terminal Aerodrome Forecast
Issued by NWS

Home | Current Version | Previous Version | Text Only | Print | Product List | Glossary On
Versions: 1 2 3 4 5 6 7 8 9 10 11 12 13 14 15 16 17 18
000
FTUS43 KICT 300829 AAA
TAFRSL
TAF AMD
KRSL 300829Z 3008/0106 02026G37KT 3SM -RASN BR VCTS OVC007CB
      TEMPO 3008/3012 1SM -TSRASN OVC006CB
     FM301200 36022G32KT 3SM -RASN BR OVC007
     FM010000 33025G35KT 5SM -SN BR OVC005=

USA.gov is the U.S. government's official web portal to all federal, state and local government web resources and services.